sensor_id;sensor_type;location;lat;lon;timestamp;P1;durP1;ratioP1;P2;durP2;ratioP2
62419;SDS011;48460;51.616;5.426;2022-11-20T00:02:09;20.45;;;10.60;;
62419;SDS011;48460;51.616;5.426;2022-11-20T00:04:35;17.77;;;10.30;;
62419;SDS011;48460;51.616;5.426;2022-11-20T00:07:00;21.60;;;11.02;;
62419;SDS011;48460;51.616;5.426;2022-11-20T00:09:26;19.70;;;10.25;;
62419;SDS011;48460;51.616;5.426;2022-11-20T00:11:51;22.38;;;10.55;;
62419;SDS011;48460;51.616;5.426;2022-11-20T00:14:16;20.23;;;10.40;;
62419;SDS011;48460;51.616;5.426;2022-11-20T00:16:42;22.52;;;11.05;;
62419;SDS011;48460;51.616;5.426;2022-11-20T00:19:09;18.63;;;9.93;;
62419;SDS011;48460;51.616;5.426;2022-11-20T00:21:35;19.83;;;10.40;;
62419;SDS011;48460;51.616;5.426;2022-11-20T00:24:00;20.40;;;10.90;;
62419;SDS011;48460;51.616;5.426;2022-11-20T00:26:26;24.08;;;11.77;;
62419;SDS011;48460;51.616;5.426;2022-11-20T00:28:53;23.08;;;11.63;;
62419;SDS011;48460;51.616;5.426;2022-11-20T00:31:23;21.33;;;11.43;;
62419;SDS011;48460;51.616;5.426;2022-11-20T00:33:49;21.23;;;10.95;;
62419;SDS011;48460;51.616;5.426;2022-11-20T00:36:16;23.65;;;10.60;;
62419;SDS011;48460;51.616;5.426;2022-11-20T00:38:44;22.05;;;11.27;;
62419;SDS011;48460;51.616;5.426;2022-11-20T00:41:14;21.27;;;11.05;;
62419;SDS011;48460;51.616;5.426;2022-11-20T00:43:40;22.10;;;11.10;;
62419;SDS011;48460;51.616;5.426;2022-11-20T00:46:07;19.05;;;10.38;;
62419;SDS011;48460;51.616;5.426;2022-11-20T00:48:35;22.73;;;10.55;;
62419;SDS011;48460;51.616;5.426;2022-11-20T00:51:00;22.02;;;11.15;;
62419;SDS011;48460;51.616;5.426;2022-11-20T00:53:26;18.95;;;10.73;;
62419;SDS011;48460;51.616;5.426;2022-11-20T00:55:55;21.90;;;10.55;;
62419;SDS011;48460;51.616;5.426;2022-11-20T00:58:22;19.13;;;10.13;;
62419;SDS011;48460;51.616;5.426;2022-11-20T01:00:49;22.95;;;10.65;;
62419;SDS011;48460;51.616;5.426;2022-11-20T01:03:16;22.25;;;11.43;;
62419;SDS011;48460;51.616;5.426;2022-11-20T01:05:42;23.35;;;11.70;;
62419;SDS011;48460;51.616;5.426;2022-11-20T01:08:07;21.27;;;10.65;;
62419;SDS011;48460;51.616;5.426;2022-11-20T01:10:33;19.95;;;10.85;;
62419;SDS011;48460;51.616;5.426;2022-11-20T01:12:58;21.00;;;10.73;;
62419;SDS011;48460;51.616;5.426;2022-11-20T01:15:42;25.95;;;12.13;;
62419;SDS011;48460;51.616;5.426;2022-11-20T01:18:08;25.63;;;12.18;;
62419;SDS011;48460;51.616;5.426;2022-11-20T01:20:34;23.50;;;11.85;;
62419;SDS011;48460;51.616;5.426;2022-11-20T01:23:00;25.10;;;11.68;;
62419;SDS011;48460;51.616;5.426;2022-11-20T01:25:26;26.63;;;13.02;;
62419;SDS011;48460;51.616;5.426;2022-11-20T01:27:51;30.15;;;13.60;;
62419;SDS011;48460;51.616;5.426;2022-11-20T01:30:17;28.77;;;14.27;;
62419;SDS011;48460;51.616;5.426;2022-11-20T01:32:42;29.38;;;13.48;;
62419;SDS011;48460;51.616;5.426;2022-11-20T01:35:07;28.50;;;12.55;;
62419;SDS011;48460;51.616;5.426;2022-11-20T01:37:34;27.85;;;12.70;;
62419;SDS011;48460;51.616;5.426;2022-11-20T01:40:00;24.63;;;12.68;;
62419;SDS011;48460;51.616;5.426;2022-11-20T01:42:25;25.65;;;12.43;;
62419;SDS011;48460;51.616;5.426;2022-11-20T01:48:12;34.58;;;13.45;;
62419;SDS011;48460;51.616;5.426;2022-11-20T01:50:39;29.95;;;12.70;;
62419;SDS011;48460;51.616;5.426;2022-11-20T01:53:07;33.90;;;14.55;;
62419;SDS011;48460;51.616;5.426;2022-11-20T01:55:37;34.97;;;13.25;;
62419;SDS011;48460;51.616;5.426;2022-11-20T01:58:06;32.25;;;13.15;;
62419;SDS011;48460;51.616;5.426;2022-11-20T02:00:33;28.90;;;12.63;;
62419;SDS011;48460;51.616;5.426;2022-11-20T02:03:06;29.75;;;12.98;;
62419;SDS011;48460;51.616;5.426;2022-11-20T02:08:11;27.27;;;12.57;;
62419;SDS011;48460;51.616;5.426;2022-11-20T02:10:37;27.20;;;12.05;;
62419;SDS011;48460;51.616;5.426;2022-11-20T02:13:03;28.45;;;12.25;;
62419;SDS011;48460;51.616;5.426;2022-11-20T02:15:47;28.27;;;12.93;;
62419;SDS011;48460;51.616;5.426;2022-11-20T02:18:14;27.75;;;12.40;;
62419;SDS011;48460;51.616;5.426;2022-11-20T02:20:44;31.00;;;13.20;;
62419;SDS011;48460;51.616;5.426;2022-11-20T02:23:21;28.88;;;13.20;;
62419;SDS011;48460;51.616;5.426;2022-11-20T02:26:04;28.25;;;12.23;;
62419;SDS011;48460;51.616;5.426;2022-11-20T02:28:32;30.27;;;13.02;;
62419;SDS011;48460;51.616;5.426;2022-11-20T02:30:58;26.08;;;12.07;;
62419;SDS011;48460;51.616;5.426;2022-11-20T02:33:23;30.23;;;14.27;;
62419;SDS011;48460;51.616;5.426;2022-11-20T02:35:49;25.42;;;11.98;;
62419;SDS011;48460;51.616;5.426;2022-11-20T02:38:14;26.33;;;12.75;;
62419;SDS011;48460;51.616;5.426;2022-11-20T02:40:40;22.35;;;11.75;;
62419;SDS011;48460;51.616;5.426;2022-11-20T02:43:06;25.42;;;11.80;;
62419;SDS011;48460;51.616;5.426;2022-11-20T02:45:32;23.27;;;11.45;;
62419;SDS011;48460;51.616;5.426;2022-11-20T02:47:58;22.98;;;11.38;;
62419;SDS011;48460;51.616;5.426;2022-11-20T02:50:24;22.50;;;11.27;;
62419;SDS011;48460;51.616;5.426;2022-11-20T02:52:50;28.40;;;11.60;;
62419;SDS011;48460;51.616;5.426;2022-11-20T02:55:15;22.15;;;11.10;;
62419;SDS011;48460;51.616;5.426;2022-11-20T02:57:40;22.17;;;11.05;;
62419;SDS011;48460;51.616;5.426;2022-11-20T03:00:06;26.02;;;12.32;;
62419;SDS011;48460;51.616;5.426;2022-11-20T03:02:32;23.60;;;11.45;;
62419;SDS011;48460;51.616;5.426;2022-11-20T03:04:58;27.38;;;12.18;;
62419;SDS011;48460;51.616;5.426;2022-11-20T03:07:24;21.80;;;11.10;;
62419;SDS011;48460;51.616;5.426;2022-11-20T03:09:49;24.50;;;12.35;;
62419;SDS011;48460;51.616;5.426;2022-11-20T03:12:15;23.80;;;11.27;;
62419;SDS011;48460;51.616;5.426;2022-11-20T03:14:40;23.17;;;11.45;;
62419;SDS011;48460;51.616;5.426;2022-11-20T03:17:06;23.85;;;11.20;;
62419;SDS011;48460;51.616;5.426;2022-11-20T03:19:31;22.50;;;11.43;;
62419;SDS011;48460;51.616;5.426;2022-11-20T03:21:57;21.63;;;11.88;;
62419;SDS011;48460;51.616;5.426;2022-11-20T03:24:22;23.42;;;11.35;;
62419;SDS011;48460;51.616;5.426;2022-11-20T03:26:48;19.77;;;10.80;;
62419;SDS011;48460;51.616;5.426;2022-11-20T03:29:13;21.45;;;11.10;;
62419;SDS011;48460;51.616;5.426;2022-11-20T03:31:39;22.52;;;10.95;;
62419;SDS011;48460;51.616;5.426;2022-11-20T03:34:08;20.33;;;10.57;;
62419;SDS011;48460;51.616;5.426;2022-11-20T03:36:35;21.20;;;10.98;;
62419;SDS011;48460;51.616;5.426;2022-11-20T03:39:08;24.35;;;11.07;;
62419;SDS011;48460;51.616;5.426;2022-11-20T03:41:38;18.98;;;10.95;;
62419;SDS011;48460;51.616;5.426;2022-11-20T03:44:06;24.30;;;10.85;;
62419;SDS011;48460;51.616;5.426;2022-11-20T03:46:34;22.48;;;11.73;;
62419;SDS011;48460;51.616;5.426;2022-11-20T03:49:00;23.38;;;11.00;;
62419;SDS011;48460;51.616;5.426;2022-11-20T03:51:26;25.30;;;11.55;;
62419;SDS011;48460;51.616;5.426;2022-11-20T03:53:55;20.05;;;10.77;;
62419;SDS011;48460;51.616;5.426;2022-11-20T03:56:23;21.33;;;10.82;;
62419;SDS011;48460;51.616;5.426;2022-11-20T04:01:23;26.25;;;11.20;;
62419;SDS011;48460;51.616;5.426;2022-11-20T04:06:18;24.15;;;11.27;;
62419;SDS011;48460;51.616;5.426;2022-11-20T04:08:51;21.42;;;10.50;;
62419;SDS011;48460;51.616;5.426;2022-11-20T04:11:20;23.08;;;11.02;;
62419;SDS011;48460;51.616;5.426;2022-11-20T04:13:48;23.95;;;10.80;;
62419;SDS011;48460;51.616;5.426;2022-11-20T04:16:16;25.00;;;10.38;;
62419;SDS011;48460;51.616;5.426;2022-11-20T04:18:42;22.95;;;10.82;;
62419;SDS011;48460;51.616;5.426;2022-11-20T04:21:08;20.77;;;10.82;;
62419;SDS011;48460;51.616;5.426;2022-11-20T04:23:34;19.25;;;9.65;;
62419;SDS011;48460;51.616;5.426;2022-11-20T04:26:07;26.02;;;11.48;;
62419;SDS011;48460;51.616;5.426;2022-11-20T04:28:34;22.65;;;11.15;;
62419;SDS011;48460;51.616;5.426;2022-11-20T04:31:07;22.38;;;11.13;;
62419;SDS011;48460;51.616;5.426;2022-11-20T04:33:35;24.17;;;11.35;;
62419;SDS011;48460;51.616;5.426;2022-11-20T04:36:10;26.75;;;11.60;;
62419;SDS011;48460;51.616;5.426;2022-11-20T04:38:37;23.77;;;11.40;;
62419;SDS011;48460;51.616;5.426;2022-11-20T04:41:04;22.20;;;11.50;;
62419;SDS011;48460;51.616;5.426;2022-11-20T04:43:31;27.77;;;12.98;;
62419;SDS011;48460;51.616;5.426;2022-11-20T04:45:57;24.58;;;11.30;;
62419;SDS011;48460;51.616;5.426;2022-11-20T04:48:24;20.00;;;10.82;;
62419;SDS011;48460;51.616;5.426;2022-11-20T04:50:51;21.17;;;10.98;;
62419;SDS011;48460;51.616;5.426;2022-11-20T04:53:17;21.42;;;10.98;;
62419;SDS011;48460;51.616;5.426;2022-11-20T04:55:43;21.55;;;11.48;;
62419;SDS011;48460;51.616;5.426;2022-11-20T04:58:11;22.98;;;10.73;;
62419;SDS011;48460;51.616;5.426;2022-11-20T05:00:36;24.15;;;11.50;;
62419;SDS011;48460;51.616;5.426;2022-11-20T05:03:02;23.13;;;11.10;;
62419;SDS011;48460;51.616;5.426;2022-11-20T05:05:28;23.38;;;11.00;;
62419;SDS011;48460;51.616;5.426;2022-11-20T05:07:57;22.13;;;11.15;;
62419;SDS011;48460;51.616;5.426;2022-11-20T05:10:23;22.08;;;11.23;;
62419;SDS011;48460;51.616;5.426;2022-11-20T05:12:49;21.80;;;10.23;;
62419;SDS011;48460;51.616;5.426;2022-11-20T05:15:15;21.88;;;10.50;;
62419;SDS011;48460;51.616;5.426;2022-11-20T05:17:40;22.95;;;10.48;;
62419;SDS011;48460;51.616;5.426;2022-11-20T05:20:06;21.67;;;10.82;;
62419;SDS011;48460;51.616;5.426;2022-11-20T05:22:32;26.58;;;11.68;;
62419;SDS011;48460;51.616;5.426;2022-11-20T05:24:57;23.60;;;10.68;;
62419;SDS011;48460;51.616;5.426;2022-11-20T05:27:23;20.42;;;11.05;;
62419;SDS011;48460;51.616;5.426;2022-11-20T05:29:48;22.30;;;11.45;;
62419;SDS011;48460;51.616;5.426;2022-11-20T05:32:13;23.40;;;10.93;;
62419;SDS011;48460;51.616;5.426;2022-11-20T05:34:39;24.02;;;11.27;;
62419;SDS011;48460;51.616;5.426;2022-11-20T05:37:04;22.73;;;11.27;;
62419;SDS011;48460;51.616;5.426;2022-11-20T05:39:30;21.77;;;10.88;;
62419;SDS011;48460;51.616;5.426;2022-11-20T05:41:55;25.30;;;10.73;;
62419;SDS011;48460;51.616;5.426;2022-11-20T05:44:39;22.27;;;11.18;;
62419;SDS011;48460;51.616;5.426;2022-11-20T05:47:05;21.65;;;10.88;;
62419;SDS011;48460;51.616;5.426;2022-11-20T05:49:31;25.77;;;11.38;;
62419;SDS011;48460;51.616;5.426;2022-11-20T05:51:57;25.85;;;11.15;;
62419;SDS011;48460;51.616;5.426;2022-11-20T05:54:22;23.55;;;11.35;;
62419;SDS011;48460;51.616;5.426;2022-11-20T05:56:50;23.85;;;11.70;;
62419;SDS011;48460;51.616;5.426;2022-11-20T05:59:16;25.88;;;12.18;;
62419;SDS011;48460;51.616;5.426;2022-11-20T06:01:41;23.55;;;10.93;;
62419;SDS011;48460;51.616;5.426;2022-11-20T06:04:07;25.27;;;11.27;;
62419;SDS011;48460;51.616;5.426;2022-11-20T06:06:32;24.00;;;11.95;;
62419;SDS011;48460;51.616;5.426;2022-11-20T06:09:00;21.08;;;10.45;;
62419;SDS011;48460;51.616;5.426;2022-11-20T06:11:25;21.15;;;10.77;;
62419;SDS011;48460;51.616;5.426;2022-11-20T06:13:51;21.20;;;10.32;;
62419;SDS011;48460;51.616;5.426;2022-11-20T06:16:19;20.50;;;10.55;;
62419;SDS011;48460;51.616;5.426;2022-11-20T06:18:45;21.13;;;10.98;;
62419;SDS011;48460;51.616;5.426;2022-11-20T06:21:17;21.10;;;10.52;;
62419;SDS011;48460;51.616;5.426;2022-11-20T06:23:46;20.60;;;10.40;;
62419;SDS011;48460;51.616;5.426;2022-11-20T06:26:16;22.67;;;11.05;;
62419;SDS011;48460;51.616;5.426;2022-11-20T06:31:10;24.50;;;10.88;;
62419;SDS011;48460;51.616;5.426;2022-11-20T06:33:40;24.73;;;10.95;;
62419;SDS011;48460;51.616;5.426;2022-11-20T06:36:06;22.80;;;10.32;;
62419;SDS011;48460;51.616;5.426;2022-11-20T06:38:32;25.17;;;12.52;;
62419;SDS011;48460;51.616;5.426;2022-11-20T06:41:00;23.83;;;12.23;;
62419;SDS011;48460;51.616;5.426;2022-11-20T06:43:25;20.98;;;11.35;;
62419;SDS011;48460;51.616;5.426;2022-11-20T06:45:54;24.73;;;12.50;;
62419;SDS011;48460;51.616;5.426;2022-11-20T06:48:24;26.00;;;12.20;;
62419;SDS011;48460;51.616;5.426;2022-11-20T06:50:51;25.60;;;12.60;;
62419;SDS011;48460;51.616;5.426;2022-11-20T06:53:17;23.83;;;11.85;;
62419;SDS011;48460;51.616;5.426;2022-11-20T06:55:43;27.42;;;13.13;;
62419;SDS011;48460;51.616;5.426;2022-11-20T06:58:13;26.25;;;12.63;;
62419;SDS011;48460;51.616;5.426;2022-11-20T07:00:39;23.70;;;11.93;;
62419;SDS011;48460;51.616;5.426;2022-11-20T07:03:08;24.90;;;12.27;;
62419;SDS011;48460;51.616;5.426;2022-11-20T07:05:35;27.83;;;12.98;;
62419;SDS011;48460;51.616;5.426;2022-11-20T07:08:01;30.73;;;13.80;;
62419;SDS011;48460;51.616;5.426;2022-11-20T07:10:27;27.58;;;13.77;;
62419;SDS011;48460;51.616;5.426;2022-11-20T07:12:53;27.10;;;13.93;;
62419;SDS011;48460;51.616;5.426;2022-11-20T07:15:20;27.45;;;14.20;;
62419;SDS011;48460;51.616;5.426;2022-11-20T07:17:48;27.35;;;13.50;;
62419;SDS011;48460;51.616;5.426;2022-11-20T07:20:14;27.15;;;14.65;;
62419;SDS011;48460;51.616;5.426;2022-11-20T07:22:40;25.15;;;14.00;;
62419;SDS011;48460;51.616;5.426;2022-11-20T07:25:06;29.27;;;14.25;;
62419;SDS011;48460;51.616;5.426;2022-11-20T07:27:33;28.85;;;14.38;;
62419;SDS011;48460;51.616;5.426;2022-11-20T07:30:00;30.70;;;14.35;;
62419;SDS011;48460;51.616;5.426;2022-11-20T07:32:28;27.38;;;14.95;;
62419;SDS011;48460;51.616;5.426;2022-11-20T07:34:59;32.38;;;14.93;;
62419;SDS011;48460;51.616;5.426;2022-11-20T07:37:24;30.92;;;14.93;;
62419;SDS011;48460;51.616;5.426;2022-11-20T07:39:50;30.75;;;14.70;;
62419;SDS011;48460;51.616;5.426;2022-11-20T07:42:15;29.90;;;15.50;;
62419;SDS011;48460;51.616;5.426;2022-11-20T07:44:41;28.42;;;15.02;;
62419;SDS011;48460;51.616;5.426;2022-11-20T07:47:06;25.23;;;13.73;;
62419;SDS011;48460;51.616;5.426;2022-11-20T07:49:32;28.58;;;15.18;;
62419;SDS011;48460;51.616;5.426;2022-11-20T07:51:58;33.03;;;15.00;;
62419;SDS011;48460;51.616;5.426;2022-11-20T07:54:23;32.97;;;15.52;;
62419;SDS011;48460;51.616;5.426;2022-11-20T07:56:49;28.02;;;15.40;;
62419;SDS011;48460;51.616;5.426;2022-11-20T07:59:15;30.88;;;15.65;;
62419;SDS011;48460;51.616;5.426;2022-11-20T08:01:41;27.25;;;14.38;;
62419;SDS011;48460;51.616;5.426;2022-11-20T08:04:06;30.52;;;14.35;;
62419;SDS011;48460;51.616;5.426;2022-11-20T08:06:32;29.58;;;14.15;;
62419;SDS011;48460;51.616;5.426;2022-11-20T08:08:58;29.90;;;14.85;;
62419;SDS011;48460;51.616;5.426;2022-11-20T08:11:23;32.40;;;15.50;;
62419;SDS011;48460;51.616;5.426;2022-11-20T08:14:07;33.90;;;14.52;;
62419;SDS011;48460;51.616;5.426;2022-11-20T08:16:43;26.70;;;13.95;;
62419;SDS011;48460;51.616;5.426;2022-11-20T08:19:12;30.02;;;15.35;;
62419;SDS011;48460;51.616;5.426;2022-11-20T08:21:38;34.97;;;16.30;;
62419;SDS011;48460;51.616;5.426;2022-11-20T08:24:04;28.38;;;15.77;;
62419;SDS011;48460;51.616;5.426;2022-11-20T08:26:30;28.50;;;14.55;;
62419;SDS011;48460;51.616;5.426;2022-11-20T08:28:56;28.75;;;16.50;;
62419;SDS011;48460;51.616;5.426;2022-11-20T08:31:23;28.50;;;14.43;;
62419;SDS011;48460;51.616;5.426;2022-11-20T08:33:52;29.65;;;15.52;;
62419;SDS011;48460;51.616;5.426;2022-11-20T08:36:19;30.85;;;16.40;;
62419;SDS011;48460;51.616;5.426;2022-11-20T08:38:51;29.77;;;15.13;;
62419;SDS011;48460;51.616;5.426;2022-11-20T08:41:18;29.05;;;14.10;;
62419;SDS011;48460;51.616;5.426;2022-11-20T08:43:54;33.65;;;14.85;;
62419;SDS011;48460;51.616;5.426;2022-11-20T08:46:22;28.92;;;15.77;;
62419;SDS011;48460;51.616;5.426;2022-11-20T08:48:52;27.80;;;14.60;;
62419;SDS011;48460;51.616;5.426;2022-11-20T08:51:18;28.77;;;15.63;;
62419;SDS011;48460;51.616;5.426;2022-11-20T08:53:44;29.33;;;15.20;;
62419;SDS011;48460;51.616;5.426;2022-11-20T08:56:10;28.88;;;14.93;;
62419;SDS011;48460;51.616;5.426;2022-11-20T08:58:36;32.67;;;16.17;;
62419;SDS011;48460;51.616;5.426;2022-11-20T09:01:02;29.13;;;14.48;;
62419;SDS011;48460;51.616;5.426;2022-11-20T09:03:28;28.45;;;15.25;;
62419;SDS011;48460;51.616;5.426;2022-11-20T09:05:57;28.98;;;15.82;;
62419;SDS011;48460;51.616;5.426;2022-11-20T09:08:27;28.63;;;14.75;;
62419;SDS011;48460;51.616;5.426;2022-11-20T09:10:53;28.25;;;14.80;;
62419;SDS011;48460;51.616;5.426;2022-11-20T09:13:20;30.20;;;15.30;;
62419;SDS011;48460;51.616;5.426;2022-11-20T09:15:46;30.55;;;15.50;;
62419;SDS011;48460;51.616;5.426;2022-11-20T09:18:12;34.97;;;15.43;;
62419;SDS011;48460;51.616;5.426;2022-11-20T09:20:43;27.70;;;15.13;;
62419;SDS011;48460;51.616;5.426;2022-11-20T09:26:01;29.15;;;15.77;;
62419;SDS011;48460;51.616;5.426;2022-11-20T09:28:28;28.98;;;15.35;;
62419;SDS011;48460;51.616;5.426;2022-11-20T09:30:56;31.35;;;15.10;;
62419;SDS011;48460;51.616;5.426;2022-11-20T09:36:27;32.35;;;16.65;;
62419;SDS011;48460;51.616;5.426;2022-11-20T09:38:58;32.63;;;16.17;;
62419;SDS011;48460;51.616;5.426;2022-11-20T09:47:39;29.15;;;14.68;;
62419;SDS011;48460;51.616;5.426;2022-11-20T09:55:30;33.10;;;16.07;;
62419;SDS011;48460;51.616;5.426;2022-11-20T09:57:59;36.47;;;17.40;;
62419;SDS011;48460;51.616;5.426;2022-11-20T10:00:24;33.05;;;16.15;;
62419;SDS011;48460;51.616;5.426;2022-11-20T10:05:18;33.67;;;17.55;;
62419;SDS011;48460;51.616;5.426;2022-11-20T10:10:42;33.53;;;16.75;;
62419;SDS011;48460;51.616;5.426;2022-11-20T10:21:48;37.90;;;17.38;;
62419;SDS011;48460;51.616;5.426;2022-11-20T10:30:20;47.03;;;19.27;;
62419;SDS011;48460;51.616;5.426;2022-11-20T10:32:55;48.38;;;18.70;;
62419;SDS011;48460;51.616;5.426;2022-11-20T10:35:35;47.47;;;18.83;;
62419;SDS011;48460;51.616;5.426;2022-11-20T10:38:07;50.00;;;18.52;;
62419;SDS011;48460;51.616;5.426;2022-11-20T10:40:47;49.85;;;19.70;;
62419;SDS011;48460;51.616;5.426;2022-11-20T10:43:22;49.67;;;19.90;;
62419;SDS011;48460;51.616;5.426;2022-11-20T10:46:18;56.08;;;20.10;;
62419;SDS011;48460;51.616;5.426;2022-11-20T10:48:49;51.67;;;18.80;;
62419;SDS011;48460;51.616;5.426;2022-11-20T10:51:27;52.92;;;20.15;;
62419;SDS011;48460;51.616;5.426;2022-11-20T10:56:52;55.22;;;18.90;;
62419;SDS011;48460;51.616;5.426;2022-11-20T11:02:15;61.22;;;22.45;;
62419;SDS011;48460;51.616;5.426;2022-11-20T11:04:54;58.58;;;21.38;;
62419;SDS011;48460;51.616;5.426;2022-11-20T11:07:35;59.35;;;20.35;;
62419;SDS011;48460;51.616;5.426;2022-11-20T11:10:11;58.05;;;20.40;;
62419;SDS011;48460;51.616;5.426;2022-11-20T11:12:43;54.70;;;21.08;;
62419;SDS011;48460;51.616;5.426;2022-11-20T11:15:25;67.50;;;26.70;;
62419;SDS011;48460;51.616;5.426;2022-11-20T11:18:04;54.35;;;21.45;;
62419;SDS011;48460;51.616;5.426;2022-11-20T11:20:33;68.00;;;24.25;;
62419;SDS011;48460;51.616;5.426;2022-11-20T11:22:59;56.65;;;20.75;;
62419;SDS011;48460;51.616;5.426;2022-11-20T11:25:29;59.40;;;21.92;;
62419;SDS011;48460;51.616;5.426;2022-11-20T11:28:02;73.43;;;27.92;;
62419;SDS011;48460;51.616;5.426;2022-11-20T11:30:30;61.00;;;21.88;;
62419;SDS011;48460;51.616;5.426;2022-11-20T11:33:09;69.07;;;25.55;;
62419;SDS011;48460;51.616;5.426;2022-11-20T11:35:55;67.00;;;25.95;;
62419;SDS011;48460;51.616;5.426;2022-11-20T11:38:37;68.25;;;24.77;;
62419;SDS011;48460;51.616;5.426;2022-11-20T11:41:06;62.92;;;22.85;;
62419;SDS011;48460;51.616;5.426;2022-11-20T11:43:37;67.22;;;22.95;;
62419;SDS011;48460;51.616;5.426;2022-11-20T11:46:34;65.15;;;22.83;;
62419;SDS011;48460;51.616;5.426;2022-11-20T11:54:19;70.93;;;24.25;;
62419;SDS011;48460;51.616;5.426;2022-11-20T11:56:49;65.85;;;24.15;;
62419;SDS011;48460;51.616;5.426;2022-11-20T11:59:51;60.97;;;23.55;;
62419;SDS011;48460;51.616;5.426;2022-11-20T12:02:34;71.57;;;24.83;;
62419;SDS011;48460;51.616;5.426;2022-11-20T12:07:56;66.30;;;24.23;;
62419;SDS011;48460;51.616;5.426;2022-11-20T12:16:05;74.97;;;25.90;;
62419;SDS011;48460;51.616;5.426;2022-11-20T12:18:30;70.00;;;25.17;;
62419;SDS011;48460;51.616;5.426;2022-11-20T12:26:54;82.07;;;27.80;;
62419;SDS011;48460;51.616;5.426;2022-11-20T12:32:30;69.55;;;25.45;;
62419;SDS011;48460;51.616;5.426;2022-11-20T12:41:43;84.32;;;31.67;;
62419;SDS011;48460;51.616;5.426;2022-11-20T12:44:58;85.82;;;29.88;;
62419;SDS011;48460;51.616;5.426;2022-11-20T12:53:28;90.10;;;31.33;;
62419;SDS011;48460;51.616;5.426;2022-11-20T12:59:16;84.13;;;28.48;;
62419;SDS011;48460;51.616;5.426;2022-11-20T13:07:28;82.28;;;29.33;;
62419;SDS011;48460;51.616;5.426;2022-11-20T13:09:55;77.10;;;28.30;;
62419;SDS011;48460;51.616;5.426;2022-11-20T13:12:34;70.80;;;26.30;;
62419;SDS011;48460;51.616;5.426;2022-11-20T13:17:57;71.60;;;25.45;;
62419;SDS011;48460;51.616;5.426;2022-11-20T13:20:25;72.82;;;25.80;;
62419;SDS011;48460;51.616;5.426;2022-11-20T13:22:52;74.10;;;27.45;;
62419;SDS011;48460;51.616;5.426;2022-11-20T13:25:29;84.00;;;31.40;;
62419;SDS011;48460;51.616;5.426;2022-11-20T13:27:55;71.85;;;25.35;;
62419;SDS011;48460;51.616;5.426;2022-11-20T13:30:23;73.13;;;28.30;;
62419;SDS011;48460;51.616;5.426;2022-11-20T13:35:30;77.13;;;27.80;;
62419;SDS011;48460;51.616;5.426;2022-11-20T13:38:06;67.63;;;26.35;;
62419;SDS011;48460;51.616;5.426;2022-11-20T13:40:36;71.65;;;27.08;;
62419;SDS011;48460;51.616;5.426;2022-11-20T13:46:12;70.70;;;28.65;;
62419;SDS011;48460;51.616;5.426;2022-11-20T13:48:41;68.55;;;28.05;;
62419;SDS011;48460;51.616;5.426;2022-11-20T13:59:57;68.25;;;25.65;;
62419;SDS011;48460;51.616;5.426;2022-11-20T14:02:27;65.00;;;25.27;;
62419;SDS011;48460;51.616;5.426;2022-11-20T14:04:57;73.95;;;26.33;;
62419;SDS011;48460;51.616;5.426;2022-11-20T14:07:32;67.55;;;25.88;;
62419;SDS011;48460;51.616;5.426;2022-11-20T14:10:02;67.45;;;24.40;;
62419;SDS011;48460;51.616;5.426;2022-11-20T14:12:32;65.57;;;25.25;;
62419;SDS011;48460;51.616;5.426;2022-11-20T14:14:59;61.58;;;24.38;;
62419;SDS011;48460;51.616;5.426;2022-11-20T14:17:31;64.32;;;25.60;;
62419;SDS011;48460;51.616;5.426;2022-11-20T14:20:04;63.42;;;23.15;;
62419;SDS011;48460;51.616;5.426;2022-11-20T14:22:32;66.53;;;24.80;;
62419;SDS011;48460;51.616;5.426;2022-11-20T14:25:02;76.22;;;27.20;;
62419;SDS011;48460;51.616;5.426;2022-11-20T14:27:38;71.57;;;26.15;;
62419;SDS011;48460;51.616;5.426;2022-11-20T14:30:05;67.13;;;25.65;;
62419;SDS011;48460;51.616;5.426;2022-11-20T14:32:37;75.15;;;26.42;;
62419;SDS011;48460;51.616;5.426;2022-11-20T14:35:06;79.03;;;28.20;;
62419;SDS011;48460;51.616;5.426;2022-11-20T14:37:36;87.68;;;27.65;;
62419;SDS011;48460;51.616;5.426;2022-11-20T14:40:04;72.57;;;27.48;;
62419;SDS011;48460;51.616;5.426;2022-11-20T14:42:47;75.95;;;25.80;;
62419;SDS011;48460;51.616;5.426;2022-11-20T14:45:13;83.28;;;27.80;;
62419;SDS011;48460;51.616;5.426;2022-11-20T14:47:39;72.22;;;25.75;;
62419;SDS011;48460;51.616;5.426;2022-11-20T14:50:07;78.28;;;27.77;;
62419;SDS011;48460;51.616;5.426;2022-11-20T14:52:49;86.65;;;28.42;;
62419;SDS011;48460;51.616;5.426;2022-11-20T14:55:24;77.32;;;28.60;;
62419;SDS011;48460;51.616;5.426;2022-11-20T14:57:54;87.78;;;29.60;;
62419;SDS011;48460;51.616;5.426;2022-11-20T15:00:21;80.90;;;27.40;;
62419;SDS011;48460;51.616;5.426;2022-11-20T15:02:48;84.57;;;28.48;;
62419;SDS011;48460;51.616;5.426;2022-11-20T15:05:14;82.75;;;27.80;;
62419;SDS011;48460;51.616;5.426;2022-11-20T15:07:46;87.90;;;31.60;;
62419;SDS011;48460;51.616;5.426;2022-11-20T15:12:53;196.32;;;51.83;;
62419;SDS011;48460;51.616;5.426;2022-11-20T15:15:21;384.25;;;94.13;;
62419;SDS011;48460;51.616;5.426;2022-11-20T15:18:00;474.42;;;118.72;;
62419;SDS011;48460;51.616;5.426;2022-11-20T15:20:27;169.70;;;52.13;;
62419;SDS011;48460;51.616;5.426;2022-11-20T15:22:55;112.25;;;40.85;;
62419;SDS011;48460;51.616;5.426;2022-11-20T15:25:20;79.75;;;28.88;;
62419;SDS011;48460;51.616;5.426;2022-11-20T15:27:45;91.15;;;31.90;;
62419;SDS011;48460;51.616;5.426;2022-11-20T15:30:19;86.63;;;29.83;;
62419;SDS011;48460;51.616;5.426;2022-11-20T15:32:45;84.03;;;30.98;;
62419;SDS011;48460;51.616;5.426;2022-11-20T15:35:12;80.00;;;27.25;;
62419;SDS011;48460;51.616;5.426;2022-11-20T15:37:39;83.03;;;27.17;;
62419;SDS011;48460;51.616;5.426;2022-11-20T15:40:05;64.28;;;24.67;;
62419;SDS011;48460;51.616;5.426;2022-11-20T15:42:31;76.15;;;26.73;;
62419;SDS011;48460;51.616;5.426;2022-11-20T15:44:57;80.18;;;26.92;;
62419;SDS011;48460;51.616;5.426;2022-11-20T15:47:33;71.35;;;26.27;;
62419;SDS011;48460;51.616;5.426;2022-11-20T15:50:00;70.65;;;25.13;;
62419;SDS011;48460;51.616;5.426;2022-11-20T15:52:26;77.93;;;26.65;;
62419;SDS011;48460;51.616;5.426;2022-11-20T15:54:51;72.10;;;26.55;;
62419;SDS011;48460;51.616;5.426;2022-11-20T15:57:17;74.03;;;23.90;;
62419;SDS011;48460;51.616;5.426;2022-11-20T15:59:42;73.63;;;24.88;;
62419;SDS011;48460;51.616;5.426;2022-11-20T16:02:11;67.07;;;23.10;;
62419;SDS011;48460;51.616;5.426;2022-11-20T16:04:37;70.82;;;23.60;;
62419;SDS011;48460;51.616;5.426;2022-11-20T16:07:03;73.53;;;24.92;;
62419;SDS011;48460;51.616;5.426;2022-11-20T16:09:29;79.97;;;25.35;;
62419;SDS011;48460;51.616;5.426;2022-11-20T16:11:54;69.72;;;23.30;;
62419;SDS011;48460;51.616;5.426;2022-11-20T16:14:20;68.80;;;23.50;;
62419;SDS011;48460;51.616;5.426;2022-11-20T16:17:04;59.83;;;20.25;;
62419;SDS011;48460;51.616;5.426;2022-11-20T16:19:29;66.07;;;21.38;;
62419;SDS011;48460;51.616;5.426;2022-11-20T16:21:56;64.30;;;22.80;;
62419;SDS011;48460;51.616;5.426;2022-11-20T16:24:22;69.75;;;24.85;;
62419;SDS011;48460;51.616;5.426;2022-11-20T16:26:48;74.55;;;24.70;;
62419;SDS011;48460;51.616;5.426;2022-11-20T16:29:13;71.43;;;22.80;;
62419;SDS011;48460;51.616;5.426;2022-11-20T16:31:39;65.60;;;22.98;;